Glasford, Illinois
Current Conditions -  °F | °C
As of 6:54 PM on Tuesday 27 Jan 2015 (Local Time) from KPIA Reporting Station
Overcast Overcast  
Wind Chill: 31°   Ceiling: 1400
Heat Index: 31°   Visibility: 10mi
Dew Point: 24°   Wind: 0mph
Humidity: 76%   Direction: NA
Pressure: 30.25"   Gusts: NA
Location:  40.57°N, 89.81°W
Report Text: KPIA 280054Z 00000KT 10SM OVC014 M01/M04 A3025 RMK AO2 SLP250 T10061044
Loading
Personal Weather Stations






























Interactive Weather Map New forecast layout! Learn more

10-Day Weather Forecast

Advertisements
Track Severe Weather on mobile